createdAt,value
2022-12-18T00:00:52.272Z,21.75
2022-12-18T00:01:47.899Z,21.88
2022-12-18T00:02:43.417Z,21.90
2022-12-18T00:03:39.348Z,21.78
2022-12-18T00:04:34.402Z,21.82
2022-12-18T00:05:29.922Z,21.77
2022-12-18T00:06:25.456Z,21.78
2022-12-18T00:07:20.992Z,21.84
2022-12-18T00:08:16.534Z,21.82
2022-12-18T00:09:12.066Z,21.75
2022-12-18T00:10:07.606Z,21.81
2022-12-18T00:11:03.149Z,21.80
2022-12-18T00:11:58.701Z,21.81
2022-12-18T00:12:54.241Z,21.80
2022-12-18T00:13:49.876Z,21.84
2022-12-18T00:14:45.434Z,21.73
2022-12-18T00:15:40.964Z,21.74
2022-12-18T00:16:36.598Z,21.75
2022-12-18T00:17:32.055Z,21.73
2022-12-18T00:18:27.599Z,21.78
2022-12-18T00:19:23.142Z,21.80
2022-12-18T00:20:18.690Z,21.71
2022-12-18T00:21:14.228Z,21.74
2022-12-18T00:22:09.773Z,21.75
2022-12-18T00:23:05.313Z,21.69
2022-12-18T00:24:00.854Z,21.78
2022-12-18T00:24:56.397Z,21.65
2022-12-18T00:25:51.938Z,21.73
2022-12-18T00:26:47.491Z,21.75
2022-12-18T00:27:43.047Z,21.78
2022-12-18T00:28:38.589Z,21.77
2022-12-18T00:29:34.129Z,21.78
2022-12-18T00:30:29.690Z,21.75
2022-12-18T00:31:25.326Z,21.71
2022-12-18T00:32:20.731Z,21.77
2022-12-18T00:33:16.267Z,21.67
2022-12-18T00:34:11.803Z,21.69
2022-12-18T00:35:07.333Z,21.73
2022-12-18T00:36:02.865Z,21.69
2022-12-18T00:36:58.393Z,21.65
2022-12-18T00:37:53.931Z,21.66
2022-12-18T00:38:49.473Z,21.71
2022-12-18T00:39:45.007Z,21.65
2022-12-18T00:40:40.526Z,21.66
2022-12-18T00:41:36.053Z,21.71
2022-12-18T00:42:31.591Z,21.69
2022-12-18T00:43:27.139Z,21.69
2022-12-18T00:44:22.667Z,21.75
2022-12-18T00:45:18.197Z,21.75
2022-12-18T00:46:13.840Z,21.73
2022-12-18T00:47:09.252Z,21.71
2022-12-18T00:48:04.786Z,21.71
2022-12-18T00:49:00.314Z,21.69
2022-12-18T00:49:55.844Z,21.66
2022-12-18T00:50:51.364Z,21.66
2022-12-18T00:51:46.892Z,21.69
2022-12-18T00:52:42.421Z,21.71
2022-12-18T00:53:38.332Z,21.62
2022-12-18T00:54:33.504Z,21.67
2022-12-18T00:55:29.029Z,21.63
2022-12-18T00:56:24.556Z,21.67
2022-12-18T00:57:20.095Z,21.62
2022-12-18T00:58:15.636Z,21.59
2022-12-18T00:59:11.179Z,21.63
2022-12-18T01:00:06.732Z,21.55
2022-12-18T01:01:02.304Z,21.60
2022-12-18T01:01:58.000Z,21.59
2022-12-18T01:02:53.605Z,21.59
2022-12-18T01:03:48.906Z,21.63
2022-12-18T01:04:44.445Z,21.67
2022-12-18T01:05:39.971Z,21.65
2022-12-18T01:06:35.508Z,21.71
2022-12-18T01:07:31.106Z,21.74
2022-12-18T01:08:26.650Z,21.69
2022-12-18T01:09:22.182Z,21.69
2022-12-18T01:10:17.730Z,21.62
2022-12-18T01:11:13.253Z,21.71
2022-12-18T01:12:08.783Z,21.58
2022-12-18T01:13:04.326Z,21.59
2022-12-18T01:13:59.950Z,21.60
2022-12-18T01:14:55.475Z,21.60
2022-12-18T01:15:51.008Z,21.67
2022-12-18T01:16:46.591Z,21.66
2022-12-18T01:17:42.089Z,21.65
2022-12-18T01:18:37.597Z,21.60
2022-12-18T01:19:33.179Z,21.62
2022-12-18T01:20:28.688Z,21.60
2022-12-18T01:21:24.219Z,21.60
2022-12-18T01:22:19.814Z,21.65
2022-12-18T01:23:15.318Z,21.60
2022-12-18T01:24:10.858Z,21.58
2022-12-18T01:25:06.399Z,21.60
2022-12-18T01:26:01.951Z,21.60
2022-12-18T01:26:57.471Z,21.62
2022-12-18T01:27:53.002Z,21.62
2022-12-18T01:28:48.529Z,21.56
2022-12-18T01:29:44.060Z,21.50
2022-12-18T01:30:39.599Z,21.60
2022-12-18T01:31:35.232Z,21.56
2022-12-18T01:32:30.673Z,21.60
2022-12-18T01:33:26.206Z,21.62
2022-12-18T01:34:21.730Z,21.62
2022-12-18T01:35:17.277Z,21.66
2022-12-18T01:36:12.816Z,21.63
2022-12-18T01:37:08.356Z,21.62
2022-12-18T01:38:03.889Z,21.59
2022-12-18T01:38:59.417Z,21.60
2022-12-18T01:39:54.951Z,21.59
2022-12-18T01:40:50.480Z,21.62
2022-12-18T01:41:46.014Z,21.63
2022-12-18T01:42:41.546Z,21.59
2022-12-18T01:43:37.422Z,21.56
2022-12-18T01:44:32.611Z,21.55
2022-12-18T01:45:28.222Z,21.56
2022-12-18T01:46:23.675Z,21.63
2022-12-18T01:47:19.213Z,21.55
2022-12-18T01:48:14.751Z,21.58
2022-12-18T01:49:10.294Z,21.50
2022-12-18T01:50:05.827Z,21.62
2022-12-18T01:51:01.352Z,21.55
2022-12-18T01:51:56.880Z,21.62
2022-12-18T01:52:52.409Z,21.56
2022-12-18T01:53:47.944Z,21.51
2022-12-18T01:54:43.484Z,21.59
2022-12-18T01:55:39.028Z,21.53
2022-12-18T01:56:34.566Z,21.62
2022-12-18T01:57:30.093Z,21.63
2022-12-18T01:58:25.610Z,21.58
2022-12-18T01:59:21.151Z,21.66
2022-12-18T02:00:16.697Z,21.53
2022-12-18T02:01:12.289Z,21.60
2022-12-18T02:02:07.919Z,21.55
2022-12-18T02:03:03.385Z,21.59
2022-12-18T02:03:58.861Z,21.59
2022-12-18T02:04:54.389Z,21.55
2022-12-18T02:05:49.919Z,21.60
2022-12-18T02:06:45.476Z,21.63
2022-12-18T02:07:41.002Z,21.59
2022-12-18T02:08:36.578Z,21.55
2022-12-18T02:09:32.111Z,21.60
2022-12-18T02:10:27.650Z,21.59
2022-12-18T02:11:23.207Z,21.55
2022-12-18T02:12:18.734Z,21.60
2022-12-18T02:13:14.393Z,21.59
2022-12-18T02:14:09.823Z,21.55
2022-12-18T02:15:05.364Z,21.58
2022-12-18T02:16:00.920Z,21.55
2022-12-18T02:16:56.563Z,21.51
2022-12-18T02:17:51.989Z,21.60
2022-12-18T02:18:47.534Z,21.56
2022-12-18T02:19:43.077Z,21.55
2022-12-18T02:20:38.611Z,21.50
2022-12-18T02:21:34.131Z,21.60
2022-12-18T02:22:29.686Z,21.58
2022-12-18T02:23:25.207Z,21.58
2022-12-18T02:24:20.738Z,21.48
2022-12-18T02:25:16.270Z,21.51
2022-12-18T02:26:11.802Z,21.55
2022-12-18T02:27:07.336Z,21.50
2022-12-18T02:28:02.882Z,21.47
2022-12-18T02:28:58.540Z,21.51
2022-12-18T02:29:58.226Z,21.55
2022-12-18T02:30:49.542Z,21.48
2022-12-18T02:31:45.031Z,21.58
2022-12-18T02:32:40.561Z,21.60
2022-12-18T02:33:36.571Z,21.55
2022-12-18T02:34:31.635Z,21.50
2022-12-18T02:35:27.170Z,21.53
2022-12-18T02:36:22.696Z,21.50
2022-12-18T02:37:33.380Z,21.51
2022-12-18T02:38:28.891Z,21.47
2022-12-18T02:39:24.430Z,21.53
2022-12-18T02:40:19.986Z,21.47
2022-12-18T02:41:15.504Z,21.50
2022-12-18T02:42:11.031Z,21.48
2022-12-18T02:43:06.570Z,21.47
2022-12-18T02:44:02.200Z,21.44
2022-12-18T02:44:57.631Z,21.53
2022-12-18T02:45:53.271Z,21.43
2022-12-18T02:46:48.745Z,21.48
2022-12-18T02:47:44.283Z,21.48
2022-12-18T02:48:39.813Z,21.50
2022-12-18T02:49:35.355Z,21.45
2022-12-18T02:50:30.901Z,21.56
2022-12-18T02:51:26.452Z,21.47
2022-12-18T02:52:21.994Z,21.53
2022-12-18T02:53:17.544Z,21.50
2022-12-18T02:54:13.106Z,21.47
2022-12-18T02:55:08.636Z,21.45
2022-12-18T02:56:04.176Z,21.51
2022-12-18T02:56:59.727Z,21.35
2022-12-18T02:57:55.270Z,21.45
2022-12-18T02:58:50.819Z,21.44
2022-12-18T02:59:46.470Z,21.48
2022-12-18T03:00:41.892Z,21.47
2022-12-18T03:01:37.551Z,21.48
2022-12-18T03:02:33.153Z,21.48
2022-12-18T03:03:28.617Z,21.47
2022-12-18T03:04:24.086Z,21.50
2022-12-18T03:05:19.617Z,21.51
2022-12-18T03:06:15.162Z,21.51
2022-12-18T03:07:10.705Z,21.48
2022-12-18T03:08:06.238Z,21.53
2022-12-18T03:09:01.771Z,21.44
2022-12-18T03:09:57.308Z,21.51
2022-12-18T03:10:52.838Z,21.50
2022-12-18T03:11:48.385Z,21.48
2022-12-18T03:12:43.922Z,21.41
2022-12-18T03:13:39.758Z,21.50
2022-12-18T03:14:34.981Z,21.50
2022-12-18T03:15:30.722Z,21.53
2022-12-18T03:16:26.215Z,21.48
2022-12-18T03:17:21.673Z,21.47
2022-12-18T03:18:17.200Z,21.51
2022-12-18T03:19:12.732Z,21.48
2022-12-18T03:20:08.268Z,21.50
2022-12-18T03:21:03.800Z,21.40
2022-12-18T03:21:59.432Z,21.47
2022-12-18T03:22:54.967Z,21.32
2022-12-18T03:23:50.497Z,21.37
2022-12-18T03:24:46.031Z,21.44
2022-12-18T03:25:41.570Z,21.44
2022-12-18T03:26:37.107Z,21.44
2022-12-18T03:27:32.656Z,21.43
2022-12-18T03:28:28.191Z,21.37
2022-12-18T03:29:23.724Z,21.41
2022-12-18T03:30:19.266Z,21.47
2022-12-18T03:31:15.071Z,21.35
2022-12-18T03:32:10.346Z,21.35
2022-12-18T03:33:05.886Z,21.47
2022-12-18T03:34:01.424Z,21.47
2022-12-18T03:34:56.971Z,21.34
2022-12-18T03:35:52.492Z,21.35
2022-12-18T03:36:48.032Z,21.41
2022-12-18T03:37:43.556Z,21.44
2022-12-18T03:38:39.095Z,21.40
2022-12-18T03:39:34.636Z,21.32
2022-12-18T03:40:30.156Z,21.47
2022-12-18T03:41:25.696Z,21.47
2022-12-18T03:42:21.227Z,21.41
2022-12-18T03:43:16.769Z,21.37
2022-12-18T03:44:12.306Z,21.37
2022-12-18T03:45:07.844Z,21.40
2022-12-18T03:46:03.435Z,21.40
2022-12-18T03:46:59.022Z,21.47
2022-12-18T03:47:54.434Z,21.37
2022-12-18T03:48:49.974Z,21.45
2022-12-18T03:49:45.506Z,21.38
2022-12-18T03:50:41.037Z,21.45
2022-12-18T03:51:36.574Z,21.37
2022-12-18T03:52:32.106Z,21.34
2022-12-18T03:53:27.635Z,21.41
2022-12-18T03:54:23.155Z,21.37
2022-12-18T03:55:18.682Z,21.37
2022-12-18T03:56:14.215Z,21.41
2022-12-18T03:57:09.767Z,21.43
2022-12-18T03:58:05.297Z,21.40
2022-12-18T03:59:00.833Z,21.38
2022-12-18T03:59:56.365Z,21.43
2022-12-18T04:00:51.887Z,21.37
2022-12-18T04:01:47.540Z,21.45
2022-12-18T04:02:43.187Z,21.38
2022-12-18T04:03:38.904Z,21.38
2022-12-18T04:04:33.999Z,21.37
2022-12-18T04:05:29.532Z,21.37
2022-12-18T04:06:25.076Z,21.41
2022-12-18T04:07:20.603Z,21.41
2022-12-18T04:08:16.136Z,21.38
2022-12-18T04:09:11.657Z,21.43
2022-12-18T04:10:14.348Z,21.40
2022-12-18T04:11:09.908Z,21.40
2022-12-18T04:12:05.443Z,21.35
2022-12-18T04:13:00.987Z,21.40
2022-12-18T04:13:56.548Z,21.40
2022-12-18T04:14:52.096Z,21.34
2022-12-18T04:15:47.701Z,21.38
2022-12-18T04:16:43.192Z,21.40
2022-12-18T04:17:38.722Z,21.37
2022-12-18T04:18:34.397Z,21.41
2022-12-18T04:19:29.839Z,21.38
2022-12-18T04:20:25.386Z,21.35
2022-12-18T04:21:20.925Z,21.38
2022-12-18T04:22:16.469Z,21.35
2022-12-18T04:23:12.009Z,21.40
2022-12-18T04:24:07.572Z,21.40
2022-12-18T04:25:03.120Z,21.41
2022-12-18T04:25:58.674Z,21.40
2022-12-18T04:26:54.195Z,21.35
2022-12-18T04:27:49.728Z,21.41
2022-12-18T04:28:45.270Z,21.41
2022-12-18T04:29:40.810Z,21.37
2022-12-18T04:30:36.389Z,21.32
2022-12-18T04:31:31.968Z,21.38
2022-12-18T04:32:27.448Z,21.37
2022-12-18T04:33:22.971Z,21.35
2022-12-18T04:34:18.622Z,21.40
2022-12-18T04:35:14.048Z,21.35
2022-12-18T04:36:09.601Z,21.41
2022-12-18T04:37:05.123Z,21.37
2022-12-18T04:38:01.144Z,21.35
2022-12-18T04:38:56.715Z,21.34
2022-12-18T04:39:52.266Z,21.40
2022-12-18T04:40:47.815Z,21.37
2022-12-18T04:41:43.834Z,21.38
2022-12-18T04:42:39.468Z,21.32
2022-12-18T04:43:35.407Z,21.38
2022-12-18T04:44:31.434Z,21.38
2022-12-18T04:45:27.474Z,21.35
2022-12-18T04:46:23.506Z,21.38
2022-12-18T04:47:19.497Z,21.41
2022-12-18T04:48:15.055Z,21.35
2022-12-18T04:49:11.075Z,21.40
2022-12-18T04:50:07.245Z,21.37
2022-12-18T04:51:03.161Z,21.34
2022-12-18T04:51:59.180Z,21.40
2022-12-18T04:52:55.214Z,21.40
2022-12-18T04:53:51.226Z,21.40
2022-12-18T04:54:47.243Z,21.30
2022-12-18T04:55:43.277Z,21.32
2022-12-18T04:56:39.294Z,21.37
2022-12-18T04:57:35.321Z,21.43
2022-12-18T04:58:31.335Z,21.38
2022-12-18T04:59:27.345Z,21.34
2022-12-18T05:00:23.374Z,21.41
2022-12-18T05:01:19.561Z,21.37
2022-12-18T05:02:15.509Z,21.40
2022-12-18T05:03:11.465Z,21.40
2022-12-18T05:04:07.547Z,21.37
2022-12-18T05:05:03.498Z,21.37
2022-12-18T05:05:59.639Z,21.34
2022-12-18T05:06:56.107Z,21.26
2022-12-18T05:07:52.124Z,21.23
2022-12-18T05:08:48.145Z,21.32
2022-12-18T05:09:44.164Z,21.41
2022-12-18T05:10:40.188Z,21.29
2022-12-18T05:11:36.203Z,21.32
2022-12-18T05:12:32.221Z,21.25
2022-12-18T05:13:28.242Z,21.38
2022-12-18T05:14:24.265Z,21.37
2022-12-18T05:15:20.285Z,21.37
2022-12-18T05:16:16.392Z,21.26
2022-12-18T05:17:12.321Z,21.23
2022-12-18T05:18:08.347Z,21.25
2022-12-18T05:19:04.375Z,21.30
2022-12-18T05:20:00.398Z,21.25
2022-12-18T05:20:56.414Z,21.25
2022-12-18T05:21:58.210Z,21.29
2022-12-18T05:22:48.595Z,21.25
2022-12-18T05:23:44.682Z,21.23
2022-12-18T05:24:40.574Z,21.26
2022-12-18T05:25:36.528Z,21.26
2022-12-18T05:26:32.562Z,21.30
2022-12-18T05:27:28.572Z,21.23
2022-12-18T05:28:24.609Z,21.23
2022-12-18T05:29:20.154Z,21.30
2022-12-18T05:30:15.712Z,21.23
2022-12-18T05:31:11.300Z,21.26
2022-12-18T05:32:06.806Z,21.26
2022-12-18T05:33:02.359Z,21.26
2022-12-18T05:33:58.383Z,21.26
2022-12-18T05:34:53.925Z,21.25
2022-12-18T05:35:49.972Z,21.30
2022-12-18T05:36:45.520Z,21.22
2022-12-18T05:37:43.293Z,21.25
2022-12-18T05:38:37.298Z,21.28
2022-12-18T05:39:33.208Z,21.23
2022-12-18T05:40:29.235Z,21.29
2022-12-18T05:41:24.796Z,21.29
2022-12-18T05:42:20.364Z,21.29
2022-12-18T05:43:21.019Z,21.28
2022-12-18T05:44:11.934Z,21.32
2022-12-18T05:45:07.954Z,21.28
2022-12-18T05:46:03.508Z,21.29
2022-12-18T05:46:59.111Z,21.28
2022-12-18T05:47:54.608Z,21.23
2022-12-18T05:48:50.154Z,21.25
2022-12-18T05:49:45.705Z,21.34
2022-12-18T05:50:41.268Z,21.25
2022-12-18T05:51:36.814Z,21.25
2022-12-18T05:52:33.366Z,21.28
2022-12-18T05:53:28.917Z,21.23
2022-12-18T05:54:24.606Z,21.29
2022-12-18T05:55:20.501Z,21.29
2022-12-18T05:56:16.056Z,21.28
2022-12-18T05:57:11.623Z,21.25
2022-12-18T05:58:07.173Z,21.20
2022-12-18T05:59:03.221Z,21.26
2022-12-18T05:59:58.756Z,21.20
2022-12-18T06:00:54.304Z,21.28
2022-12-18T06:01:50.069Z,21.28
2022-12-18T06:02:45.527Z,21.26
2022-12-18T06:03:41.357Z,21.25
2022-12-18T06:04:36.490Z,21.25
2022-12-18T06:05:32.075Z,21.19
2022-12-18T06:06:27.617Z,21.16
2022-12-18T06:07:23.178Z,21.25
2022-12-18T06:08:18.719Z,21.28
2022-12-18T06:09:14.261Z,21.18
2022-12-18T06:10:09.946Z,21.22
2022-12-18T06:11:05.362Z,21.23
2022-12-18T06:12:00.901Z,21.29
2022-12-18T06:12:57.454Z,21.25
2022-12-18T06:13:57.817Z,21.26
2022-12-18T06:14:48.538Z,21.25
2022-12-18T06:15:44.079Z,21.43
2022-12-18T06:16:39.653Z,21.30
2022-12-18T06:17:35.158Z,21.35
2022-12-18T06:18:30.711Z,21.30
2022-12-18T06:19:26.254Z,21.40
2022-12-18T06:20:21.811Z,21.40
2022-12-18T06:21:17.349Z,21.48
2022-12-18T06:22:12.886Z,21.48
2022-12-18T06:23:08.443Z,21.50
2022-12-18T06:24:03.998Z,21.53
2022-12-18T06:24:59.592Z,21.48
2022-12-18T06:25:55.209Z,21.50
2022-12-18T06:26:50.642Z,21.58
2022-12-18T06:27:46.692Z,21.55
2022-12-18T06:28:42.226Z,21.63
2022-12-18T06:29:37.774Z,21.53
2022-12-18T06:30:33.327Z,21.51
2022-12-18T06:31:28.965Z,21.48
2022-12-18T06:32:24.434Z,21.60
2022-12-18T06:33:19.992Z,21.48
2022-12-18T06:34:15.559Z,21.53
2022-12-18T06:35:11.100Z,21.51
2022-12-18T06:36:06.660Z,21.63
2022-12-18T06:37:02.211Z,21.58
2022-12-18T06:37:57.758Z,21.66
2022-12-18T06:38:53.296Z,21.60
2022-12-18T06:39:48.845Z,21.62
2022-12-18T06:40:44.398Z,21.60
2022-12-18T06:41:40.537Z,21.60
2022-12-18T06:42:36.444Z,21.62
2022-12-18T06:43:32.464Z,21.74
2022-12-18T06:44:28.022Z,21.74
2022-12-18T06:45:24.146Z,21.65
2022-12-18T06:46:20.110Z,21.67
2022-12-18T06:47:15.613Z,21.69
2022-12-18T06:48:11.628Z,21.65
2022-12-18T06:49:07.649Z,21.74
2022-12-18T06:50:03.671Z,21.74
2022-12-18T06:50:59.200Z,21.74
2022-12-18T06:51:55.225Z,21.69
2022-12-18T06:52:51.251Z,21.67
2022-12-18T06:53:47.264Z,21.67
2022-12-18T06:54:43.298Z,21.65
2022-12-18T06:55:38.841Z,21.71
2022-12-18T06:56:34.381Z,21.67
2022-12-18T06:57:30.039Z,21.69
2022-12-18T06:58:25.480Z,21.67
2022-12-18T06:59:21.034Z,21.78
2022-12-18T07:00:16.576Z,21.71
2022-12-18T07:01:12.200Z,21.73
2022-12-18T07:02:07.789Z,21.75
2022-12-18T07:03:03.250Z,21.69
2022-12-18T07:03:58.750Z,21.84
2022-12-18T07:04:54.293Z,21.75
2022-12-18T07:05:49.824Z,21.81
2022-12-18T07:06:45.356Z,21.77
2022-12-18T07:07:40.916Z,21.82
2022-12-18T07:08:36.987Z,21.90
2022-12-18T07:09:32.520Z,21.81
2022-12-18T07:10:28.056Z,21.88
2022-12-18T07:11:23.682Z,21.90
2022-12-18T07:12:19.231Z,21.91
2022-12-18T07:13:14.875Z,21.77
2022-12-18T07:14:10.307Z,21.80
2022-12-18T07:15:05.846Z,21.80
2022-12-18T07:16:01.431Z,21.81
2022-12-18T07:16:56.959Z,21.78
2022-12-18T07:17:52.429Z,21.77
2022-12-18T07:18:47.953Z,21.77
2022-12-18T07:19:43.488Z,21.82
2022-12-18T07:20:39.025Z,21.77
2022-12-18T07:21:34.563Z,21.85
2022-12-18T07:22:30.104Z,21.90
2022-12-18T07:23:25.648Z,21.88
2022-12-18T07:24:21.201Z,21.88
2022-12-18T07:25:16.741Z,21.81
2022-12-18T07:26:12.294Z,21.91
2022-12-18T07:27:08.014Z,21.82
2022-12-18T07:28:03.364Z,21.88
2022-12-18T07:28:59.000Z,21.78
2022-12-18T07:29:54.422Z,21.73
2022-12-18T07:30:49.954Z,21.77
2022-12-18T07:31:45.557Z,21.82
2022-12-18T07:32:41.016Z,21.82
2022-12-18T07:33:36.881Z,21.81
2022-12-18T07:34:32.077Z,21.90
2022-12-18T07:35:27.611Z,21.90
2022-12-18T07:36:23.135Z,21.90
2022-12-18T07:37:18.676Z,21.94
2022-12-18T07:38:14.202Z,21.94
2022-12-18T07:39:09.731Z,21.90
2022-12-18T07:40:05.309Z,21.88
2022-12-18T07:41:00.787Z,21.90
2022-12-18T07:41:56.325Z,21.78
2022-12-18T07:42:51.857Z,21.80
2022-12-18T07:43:47.385Z,21.75
2022-12-18T07:44:43.024Z,21.81
2022-12-18T07:45:38.487Z,21.80
2022-12-18T07:46:33.965Z,21.84
2022-12-18T07:47:29.508Z,21.82
2022-12-18T07:48:25.034Z,21.71
2022-12-18T07:49:20.565Z,21.73
2022-12-18T07:50:16.204Z,21.67
2022-12-18T07:51:11.766Z,21.69
2022-12-18T07:52:07.290Z,21.59
2022-12-18T07:53:02.825Z,21.60
2022-12-18T07:53:58.356Z,21.59
2022-12-18T07:54:53.892Z,21.59
2022-12-18T07:56:25.025Z,21.65
2022-12-18T07:56:44.974Z,21.58
2022-12-18T07:58:00.913Z,21.53
2022-12-18T07:58:36.028Z,21.59
2022-12-18T07:59:31.561Z,21.78
2022-12-18T08:00:27.200Z,21.81
2022-12-18T08:01:22.812Z,21.84
2022-12-18T08:02:18.341Z,21.75
2022-12-18T08:03:13.767Z,21.81
2022-12-18T08:04:09.230Z,21.90
2022-12-18T08:05:04.763Z,21.88
2022-12-18T08:06:00.293Z,21.90
2022-12-18T08:06:55.831Z,21.90
2022-12-18T08:07:51.372Z,21.96
2022-12-18T08:08:46.897Z,21.96
2022-12-18T08:09:42.438Z,21.90
2022-12-18T08:10:37.972Z,21.94
2022-12-18T08:11:33.503Z,21.93
2022-12-18T08:12:29.076Z,21.88
2022-12-18T08:13:24.608Z,21.91
2022-12-18T08:14:20.136Z,21.94
2022-12-18T08:15:15.665Z,21.93
2022-12-18T08:16:11.334Z,21.96
2022-12-18T08:17:06.767Z,21.91
2022-12-18T08:18:02.268Z,22.00
2022-12-18T08:18:57.796Z,22.00
2022-12-18T08:19:53.337Z,22.01
2022-12-18T08:20:48.856Z,22.03
2022-12-18T08:21:44.393Z,22.00
2022-12-18T08:22:39.929Z,22.01
2022-12-18T08:23:40.694Z,22.03
2022-12-18T08:24:30.989Z,22.00
2022-12-18T08:25:26.518Z,22.01
2022-12-18T08:26:22.094Z,22.01
2022-12-18T08:27:32.999Z,22.07
2022-12-18T08:28:13.121Z,22.15
2022-12-18T08:29:08.658Z,22.12
2022-12-18T08:30:04.196Z,22.01
2022-12-18T08:30:59.740Z,22.04
2022-12-18T08:31:55.390Z,21.98
2022-12-18T08:32:50.782Z,21.98
2022-12-18T08:33:46.303Z,21.96
2022-12-18T08:34:41.841Z,21.93
2022-12-18T08:35:42.453Z,21.98
2022-12-18T08:36:32.909Z,21.96
2022-12-18T08:37:28.431Z,21.90
2022-12-18T08:38:23.965Z,21.93
2022-12-18T08:39:19.501Z,21.88
2022-12-18T08:40:15.036Z,21.93
2022-12-18T08:41:10.590Z,21.88
2022-12-18T08:42:10.033Z,21.90
2022-12-18T08:43:01.677Z,21.85
2022-12-18T08:43:57.213Z,21.82
2022-12-18T08:44:52.744Z,21.90
2022-12-18T08:45:48.334Z,21.85
2022-12-18T08:46:43.844Z,21.78
2022-12-18T08:47:39.511Z,21.82
2022-12-18T08:48:34.917Z,21.75
2022-12-18T08:49:30.460Z,21.75
2022-12-18T08:50:26.098Z,21.84
2022-12-18T08:51:21.543Z,21.84
2022-12-18T08:52:17.125Z,21.77
2022-12-18T08:53:12.666Z,21.81
2022-12-18T08:54:08.201Z,21.73
2022-12-18T08:55:03.738Z,21.77
2022-12-18T08:55:59.285Z,21.78
2022-12-18T08:56:54.859Z,21.81
2022-12-18T08:57:50.409Z,21.90
2022-12-18T08:58:45.977Z,21.81
2022-12-18T08:59:41.498Z,21.78
2022-12-18T09:00:37.066Z,21.78
2022-12-18T09:01:32.786Z,21.77
2022-12-18T09:02:28.336Z,21.85
2022-12-18T09:03:23.852Z,21.82
2022-12-18T09:04:19.229Z,21.80
2022-12-18T09:05:14.874Z,21.84
2022-12-18T09:06:10.508Z,21.80
2022-12-18T09:07:06.044Z,21.80
2022-12-18T09:08:01.594Z,21.90
2022-12-18T09:08:57.137Z,21.84
2022-12-18T09:09:52.684Z,21.91
2022-12-18T09:10:48.224Z,21.96
2022-12-18T09:11:43.760Z,21.93
2022-12-18T09:12:39.304Z,21.91
2022-12-18T09:13:34.858Z,22.01
2022-12-18T09:14:30.390Z,22.00
2022-12-18T09:15:25.926Z,21.94
2022-12-18T09:16:22.510Z,21.98
2022-12-18T09:17:17.135Z,22.01
2022-12-18T09:18:12.568Z,22.01
2022-12-18T09:19:08.225Z,22.00
2022-12-18T09:20:03.654Z,21.98
2022-12-18T09:20:59.198Z,22.04
2022-12-18T09:21:54.727Z,21.94
2022-12-18T09:22:50.258Z,22.04
2022-12-18T09:23:45.796Z,21.91
2022-12-18T09:24:41.340Z,22.01
2022-12-18T09:25:36.892Z,22.00
2022-12-18T09:26:32.444Z,22.01
2022-12-18T09:27:27.978Z,22.07
2022-12-18T09:28:23.524Z,22.06
2022-12-18T09:29:19.253Z,22.09
2022-12-18T09:30:14.693Z,22.03
2022-12-18T09:31:10.293Z,22.01
2022-12-18T09:32:05.794Z,21.98
2022-12-18T09:33:01.325Z,22.09
2022-12-18T09:33:56.872Z,22.06
2022-12-18T09:34:52.523Z,21.96
2022-12-18T09:35:47.958Z,22.07
2022-12-18T09:36:43.508Z,22.06
2022-12-18T09:37:39.062Z,22.06
2022-12-18T09:38:34.720Z,22.07
2022-12-18T09:39:30.270Z,22.09
2022-12-18T09:40:25.822Z,22.09
2022-12-18T09:41:21.353Z,22.03
2022-12-18T09:42:16.889Z,22.03
2022-12-18T09:43:12.419Z,22.04
2022-12-18T09:44:07.958Z,22.12
2022-12-18T09:45:03.561Z,22.06
2022-12-18T09:45:59.195Z,22.12
2022-12-18T09:46:54.681Z,22.16
2022-12-18T09:47:50.246Z,22.18
2022-12-18T09:48:46.263Z,22.07
2022-12-18T09:49:41.811Z,22.12
2022-12-18T09:50:37.474Z,22.16
2022-12-18T09:51:32.902Z,22.01
2022-12-18T09:52:28.458Z,21.98
2022-12-18T09:53:24.012Z,22.09
2022-12-18T09:54:19.560Z,22.01
2022-12-18T09:55:15.111Z,22.01
2022-12-18T09:56:10.663Z,22.12
2022-12-18T09:57:06.227Z,22.11
2022-12-18T09:58:01.784Z,22.09
2022-12-18T09:58:57.824Z,22.06
2022-12-18T09:59:53.395Z,22.18
2022-12-18T10:00:49.429Z,22.03
2022-12-18T10:01:47.425Z,22.13
2022-12-18T10:02:40.684Z,22.16
2022-12-18T10:03:36.541Z,22.15
2022-12-18T10:04:32.594Z,22.04
2022-12-18T10:05:28.630Z,22.15
2022-12-18T10:06:24.289Z,22.03
2022-12-18T10:07:19.836Z,22.07
2022-12-18T10:08:15.860Z,22.01
2022-12-18T10:09:11.402Z,22.15
2022-12-18T10:10:06.924Z,22.06
2022-12-18T10:11:02.586Z,22.09
2022-12-18T10:11:58.617Z,22.07
2022-12-18T10:12:58.254Z,22.15
2022-12-18T10:13:50.197Z,22.04
2022-12-18T10:14:46.377Z,22.15
2022-12-18T10:15:42.497Z,22.15
2022-12-18T10:16:38.094Z,22.11
2022-12-18T10:17:34.121Z,22.12
2022-12-18T10:18:30.133Z,22.15
2022-12-18T10:19:26.156Z,22.18
2022-12-18T10:20:21.765Z,22.16
2022-12-18T10:21:17.435Z,22.12
2022-12-18T10:22:13.251Z,22.16
2022-12-18T10:23:08.846Z,22.12
2022-12-18T10:24:04.396Z,22.12
2022-12-18T10:24:59.940Z,22.18
2022-12-18T10:25:55.478Z,22.15
2022-12-18T10:27:06.331Z,22.06
2022-12-18T10:28:01.993Z,22.11
2022-12-18T10:29:00.780Z,22.15
2022-12-18T10:29:53.091Z,22.19
2022-12-18T10:30:55.813Z,22.07
2022-12-18T10:31:51.359Z,22.09
2022-12-18T10:32:46.901Z,22.09
2022-12-18T10:33:42.440Z,22.15
2022-12-18T10:34:38.036Z,22.15
2022-12-18T10:35:33.572Z,22.09
2022-12-18T10:36:29.282Z,22.15
2022-12-18T10:37:24.923Z,22.15
2022-12-18T10:38:20.353Z,22.09
2022-12-18T10:39:15.882Z,22.21
2022-12-18T10:40:14.193Z,22.12
2022-12-18T10:41:06.955Z,22.06
2022-12-18T10:42:02.482Z,22.07
2022-12-18T10:42:58.011Z,22.07
2022-12-18T10:43:53.717Z,22.13
2022-12-18T10:45:00.532Z,22.13
2022-12-18T10:45:56.096Z,22.18
2022-12-18T10:46:51.761Z,22.16
2022-12-18T10:47:47.142Z,22.12
2022-12-18T10:48:43.156Z,22.12
2022-12-18T10:49:49.638Z,22.18
2022-12-18T10:51:10.377Z,22.15
2022-12-18T10:51:40.636Z,22.06
2022-12-18T10:52:39.610Z,22.07
2022-12-18T10:53:31.781Z,22.11
2022-12-18T10:54:27.353Z,22.15
2022-12-18T10:55:23.467Z,22.12
2022-12-18T10:56:18.561Z,22.12
2022-12-18T10:57:14.092Z,22.13
2022-12-18T10:58:09.633Z,22.09
2022-12-18T10:59:05.872Z,22.13
2022-12-18T11:00:00.737Z,22.15
2022-12-18T11:00:56.280Z,22.09
2022-12-18T11:01:52.081Z,22.13
2022-12-18T11:02:47.606Z,22.12
2022-12-18T11:03:43.080Z,22.12
2022-12-18T11:04:38.699Z,22.13
2022-12-18T11:05:35.238Z,22.11
2022-12-18T11:06:31.163Z,22.12
2022-12-18T11:07:26.732Z,22.06
2022-12-18T11:08:23.333Z,22.04
2022-12-18T11:09:19.580Z,22.11
2022-12-18T11:10:15.273Z,22.16
2022-12-18T11:11:10.812Z,22.12
2022-12-18T11:11:55.482Z,22.11
2022-12-18T11:12:51.027Z,22.11
2022-12-18T11:13:47.586Z,22.04
2022-12-18T11:14:46.859Z,22.13
2022-12-18T11:15:38.757Z,22.13
2022-12-18T11:16:34.328Z,22.00
2022-12-18T11:17:29.800Z,22.13
2022-12-18T11:18:25.330Z,22.13
2022-12-18T11:19:20.857Z,22.12
2022-12-18T11:20:16.457Z,22.15
2022-12-18T11:21:11.987Z,22.15
2022-12-18T11:22:08.566Z,22.19
2022-12-18T11:23:04.109Z,22.12
2022-12-18T11:23:59.777Z,22.16
2022-12-18T11:25:22.821Z,22.15
2022-12-18T11:25:50.728Z,22.09
2022-12-18T11:26:46.264Z,22.12
2022-12-18T11:27:41.788Z,22.15
2022-12-18T11:28:37.540Z,22.15
2022-12-18T11:29:34.196Z,22.15
2022-12-18T11:30:29.559Z,22.16
2022-12-18T11:31:25.125Z,22.13
2022-12-18T11:32:20.692Z,22.18
2022-12-18T11:33:16.231Z,22.18
2022-12-18T11:34:28.481Z,22.13
2022-12-18T11:35:07.313Z,22.15
2022-12-18T11:36:02.842Z,22.12
2022-12-18T11:36:58.382Z,22.12
2022-12-18T11:37:54.165Z,22.13
2022-12-18T11:38:49.733Z,22.03
2022-12-18T11:39:45.381Z,22.06
2022-12-18T11:40:41.572Z,22.23
2022-12-18T11:41:36.466Z,22.18
2022-12-18T11:42:31.968Z,22.12
2022-12-18T11:43:27.684Z,22.04
2022-12-18T11:44:24.240Z,22.01
2022-12-18T11:45:19.849Z,21.85
2022-12-18T11:46:19.652Z,21.93
2022-12-18T11:47:10.900Z,21.94
2022-12-18T11:48:06.413Z,21.88
2022-12-18T11:49:01.945Z,21.88
2022-12-18T11:49:57.488Z,21.77
2022-12-18T11:50:53.022Z,21.75
2022-12-18T11:51:48.563Z,21.80
2022-12-18T11:52:44.122Z,21.80
2022-12-18T11:53:39.653Z,21.82
2022-12-18T11:54:36.204Z,21.78
2022-12-18T11:55:31.867Z,21.80
2022-12-18T11:56:27.287Z,21.88
2022-12-18T11:57:22.820Z,21.82